Time;durP1;ratioP1;P1;durP2;ratioP2;P2;SDS_P1;SDS_P2;PMS_P1;PMS_P2;Temp;Humidity;BMP_temperature;BMP_pressure;BME280_temperature;BME280_humidity;BME280_pressure;Samples;Min_cycle;Max_cycle;Signal;HPM_P1;HPM_P2
2022/02/23 00:02:38;;;;;;;;;18.75;13.75;;;;;;;;5042173;28;51112;-48
2022/02/23 00:05:26;;;;;;;;;16.75;15.25;;;;;;;;5041677;28;51056;-50
2022/02/23 00:08:11;;;;;;;;;20.75;17.75;;;;;;;;5042542;28;51090;-49
2022/02/23 00:10:56;;;;;;;;;27.00;18.00;;;;;;;;5048964;28;51024;-47
2022/02/23 00:13:41;;;;;;;;;19.50;15.75;;;;;;;;5042115;28;51083;-45
2022/02/23 00:16:26;;;;;;;;;12.50;12.50;;;;;;;;5042227;28;51175;-51
2022/02/23 00:19:25;;;;;;;;;19.25;15.50;;;;;;;;5041611;28;51143;-48
2022/02/23 00:22:10;;;;;;;;;16.50;14.75;;;;;;;;5042324;28;51212;-48
2022/02/23 00:24:55;;;;;;;;;22.25;14.25;;;;;;;;5062155;28;51316;-50
2022/02/23 00:27:40;;;;;;;;;11.50;11.00;;;;;;;;5060048;28;51115;-47
2022/02/23 00:30:24;;;;;;;;;27.00;18.00;;;;;;;;5041774;28;51029;-51
2022/02/23 00:33:46;;;;;;;;;20.75;16.75;;;;;;;;5041836;28;51064;-49
2022/02/23 00:36:32;;;;;;;;;18.75;16.50;;;;;;;;5043227;28;51366;-48
2022/02/23 00:39:18;;;;;;;;;22.00;16.00;;;;;;;;5042235;28;51243;-47
2022/02/23 00:42:02;;;;;;;;;19.00;18.00;;;;;;;;5044993;28;51167;-48
2022/02/23 00:44:58;;;;;;;;;20.25;17.00;;;;;;;;5039724;28;51009;-47
2022/02/23 00:47:54;;;;;;;;;15.25;15.00;;;;;;;;5046217;28;51152;-50
2022/02/23 00:50:39;;;;;;;;;19.00;16.00;;;;;;;;5059565;28;51119;-48
2022/02/23 00:53:23;;;;;;;;;19.25;18.25;;;;;;;;5051999;28;51510;-49
2022/02/23 00:56:10;;;;;;;;;16.25;14.75;;;;;;;;5042798;28;51432;-48
2022/02/23 00:58:59;;;;;;;;;20.00;15.50;;;;;;;;5057557;28;51263;-47
2022/02/23 01:01:44;;;;;;;;;14.25;13.75;;;;;;;;5039059;28;51389;-47
2022/02/23 01:04:28;;;;;;;;;22.50;16.00;;;;;;;;5051275;28;51254;-50
2022/02/23 01:07:14;;;;;;;;;19.25;14.50;;;;;;;;5043610;28;51614;-48
2022/02/23 01:10:09;;;;;;;;;19.75;16.00;;;;;;;;5042193;28;51151;-47
2022/02/23 01:12:56;;;;;;;;;19.25;15.50;;;;;;;;5045660;28;51163;-48
2022/02/23 01:15:41;;;;;;;;;17.75;15.00;;;;;;;;5041121;28;51215;-46
2022/02/23 01:18:30;;;;;;;;;19.75;15.00;;;;;;;;5041130;28;51106;-50
2022/02/23 01:21:14;;;;;;;;;19.75;16.75;;;;;;;;5045467;28;51175;-48
2022/02/23 01:24:02;;;;;;;;;19.50;15.50;;;;;;;;5043633;28;51220;-48
2022/02/23 01:26:46;;;;;;;;;18.75;16.00;;;;;;;;5044840;28;51222;-49
2022/02/23 01:29:30;;;;;;;;;23.00;18.00;;;;;;;;5046716;28;51050;-48
2022/02/23 01:32:19;;;;;;;;;23.00;19.00;;;;;;;;5041737;28;51456;-45
2022/02/23 01:35:03;;;;;;;;;19.50;14.50;;;;;;;;5043838;28;51150;-47
2022/02/23 01:37:52;;;;;;;;;22.50;15.75;;;;;;;;5042725;28;50950;-49
2022/02/23 01:40:38;;;;;;;;;22.75;18.00;;;;;;;;5043137;28;51136;-47
2022/02/23 01:43:22;;;;;;;;;17.25;15.50;;;;;;;;5046425;28;51567;-49
2022/02/23 01:46:09;;;;;;;;;14.50;14.00;;;;;;;;5046308;28;51108;-47
2022/02/23 01:48:56;;;;;;;;;16.50;14.50;;;;;;;;5042165;28;51391;-45
2022/02/23 01:51:41;;;;;;;;;16.00;15.75;;;;;;;;5042739;28;51375;-45
2022/02/23 01:54:26;;;;;;;;;19.50;17.50;;;;;;;;5043303;28;51286;-49
2022/02/23 01:57:32;;;;;;;;;19.25;15.75;;;;;;;;5040241;28;51625;-48
2022/02/23 02:00:17;;;;;;;;;23.00;19.25;;;;;;;;5047284;28;51181;-45
2022/02/23 02:03:25;;;;;;;;;20.75;17.00;;;;;;;;5036529;28;51149;-47
2022/02/23 02:06:10;;;;;;;;;20.25;16.50;;;;;;;;5047927;28;51191;-46
2022/02/23 02:09:20;;;;;;;;;18.50;15.50;;;;;;;;5040606;28;51281;-46
2022/02/23 02:12:30;;;;;;;;;21.00;15.75;;;;;;;;5050358;28;52137;-44
2022/02/23 02:15:20;;;;;;;;;21.00;16.50;;;;;;;;5040540;28;51159;-49
2022/02/23 02:18:13;;;;;;;;;21.75;19.25;;;;;;;;5044826;28;51431;-47
2022/02/23 02:21:07;;;;;;;;;20.00;16.75;;;;;;;;5047761;28;51225;-46
2022/02/23 02:23:53;;;;;;;;;20.75;16.25;;;;;;;;5047298;28;51104;-48
2022/02/23 02:26:38;;;;;;;;;24.25;18.75;;;;;;;;5038676;28;51570;-49
2022/02/23 02:29:24;;;;;;;;;16.75;14.00;;;;;;;;5050637;28;51203;-48
2022/02/23 02:32:14;;;;;;;;;18.25;16.50;;;;;;;;5045769;28;52168;-50
2022/02/23 02:35:00;;;;;;;;;22.75;17.50;;;;;;;;5046045;28;51652;-47
2022/02/23 02:37:55;;;;;;;;;22.00;16.00;;;;;;;;5050885;28;51254;-45
2022/02/23 02:40:40;;;;;;;;;18.75;15.25;;;;;;;;5041542;28;51104;-45
2022/02/23 02:43:25;;;;;;;;;21.00;15.25;;;;;;;;5038516;28;51349;-45
2022/02/23 02:46:10;;;;;;;;;19.50;17.75;;;;;;;;5041370;28;51185;-49
2022/02/23 02:48:55;;;;;;;;;22.00;16.25;;;;;;;;5039709;28;51649;-45
2022/02/23 02:51:39;;;;;;;;;21.00;17.00;;;;;;;;5043822;28;51182;-48
2022/02/23 02:54:25;;;;;;;;;19.50;15.75;;;;;;;;5041614;28;51027;-49
2022/02/23 02:57:22;;;;;;;;;20.50;17.00;;;;;;;;5043272;28;51140;-48
2022/02/23 03:00:10;;;;;;;;;15.25;14.25;;;;;;;;5048189;28;51478;-49
2022/02/23 03:02:55;;;;;;;;;18.25;16.25;;;;;;;;5041934;28;51108;-49
2022/02/23 03:05:41;;;;;;;;;22.00;18.50;;;;;;;;5040111;28;51361;-47
2022/02/23 03:08:28;;;;;;;;;23.50;16.50;;;;;;;;5040103;28;51065;-48
2022/02/23 03:11:20;;;;;;;;;19.75;16.00;;;;;;;;5041528;28;51139;-47
2022/02/23 03:14:05;;;;;;;;;19.25;16.25;;;;;;;;5040574;28;51478;-49
2022/02/23 03:16:56;;;;;;;;;20.50;16.00;;;;;;;;5039577;28;51006;-46
2022/02/23 03:19:40;;;;;;;;;19.50;15.75;;;;;;;;5039424;28;51183;-48
2022/02/23 03:22:37;;;;;;;;;31.25;21.75;;;;;;;;5034178;28;51105;-49
2022/02/23 03:25:36;;;;;;;;;20.50;18.25;;;;;;;;5042074;28;51527;-48
2022/02/23 03:28:21;;;;;;;;;25.00;18.75;;;;;;;;5053427;28;51797;-47
2022/02/23 03:31:22;;;;;;;;;23.50;18.00;;;;;;;;5056868;28;51166;-47
2022/02/23 03:34:19;;;;;;;;;16.50;16.50;;;;;;;;5038491;28;51487;-50
2022/02/23 03:37:09;;;;;;;;;19.50;17.50;;;;;;;;5038957;28;51046;-47
2022/02/23 03:40:04;;;;;;;;;18.50;18.25;;;;;;;;5045610;28;51549;-50
2022/02/23 03:42:49;;;;;;;;;20.00;16.00;;;;;;;;5039404;28;51119;-49
2022/02/23 03:45:39;;;;;;;;;20.25;19.00;;;;;;;;5038613;28;51179;-47
2022/02/23 03:48:26;;;;;;;;;41.75;33.00;;;;;;;;5044717;28;51379;-45
2022/02/23 03:51:20;;;;;;;;;36.75;30.00;;;;;;;;5050819;28;51052;-46
2022/02/23 03:54:05;;;;;;;;;27.75;24.75;;;;;;;;5037848;28;51155;-47
2022/02/23 03:56:49;;;;;;;;;29.50;21.00;;;;;;;;5038195;28;51120;-48
2022/02/23 03:59:35;;;;;;;;;21.50;18.00;;;;;;;;5038141;28;51202;-49
2022/02/23 04:02:19;;;;;;;;;23.50;20.00;;;;;;;;5049953;28;51098;-48
2022/02/23 04:05:04;;;;;;;;;24.25;17.25;;;;;;;;5038023;28;51162;-48
2022/02/23 04:07:49;;;;;;;;;20.50;17.75;;;;;;;;5050152;28;51166;-52
2022/02/23 04:10:35;;;;;;;;;18.50;16.00;;;;;;;;5040786;28;51425;-48
2022/02/23 04:13:21;;;;;;;;;24.00;19.50;;;;;;;;5037939;28;51194;-49
2022/02/23 04:16:06;;;;;;;;;21.25;18.25;;;;;;;;5040753;28;51161;-44
2022/02/23 04:18:53;;;;;;;;;23.50;17.25;;;;;;;;5044223;28;51574;-50
2022/02/23 04:21:40;;;;;;;;;22.00;19.50;;;;;;;;5036937;28;51148;-52
2022/02/23 04:24:25;;;;;;;;;19.75;16.25;;;;;;;;5039473;28;51587;-50
2022/02/23 04:27:15;;;;;;;;;16.50;14.50;;;;;;;;5040037;28;51115;-47
2022/02/23 04:29:59;;;;;;;;;20.75;17.50;;;;;;;;5038938;28;51020;-45
2022/02/23 04:32:49;;;;;;;;;21.25;17.50;;;;;;;;5049175;28;51284;-44
2022/02/23 04:35:48;;;;;;;;;18.75;18.00;;;;;;;;5040766;28;51495;-50
2022/02/23 04:38:34;;;;;;;;;19.25;17.75;;;;;;;;5042035;28;51080;-46
2022/02/23 04:41:20;;;;;;;;;27.00;16.00;;;;;;;;5053422;28;51610;-49
2022/02/23 04:44:06;;;;;;;;;19.75;13.75;;;;;;;;5059498;28;51064;-47
2022/02/23 04:47:03;;;;;;;;;17.00;14.50;;;;;;;;5040016;28;51064;-47
2022/02/23 04:49:57;;;;;;;;;21.50;17.75;;;;;;;;5043106;28;51492;-49
2022/02/23 04:52:44;;;;;;;;;19.00;16.50;;;;;;;;5042066;28;51089;-45
2022/02/23 04:55:33;;;;;;;;;15.25;13.25;;;;;;;;5047498;28;51634;-44
2022/02/23 04:58:17;;;;;;;;;27.75;20.00;;;;;;;;5059017;28;51242;-47
2022/02/23 05:01:11;;;;;;;;;24.75;16.75;;;;;;;;5054604;28;51102;-46
2022/02/23 05:03:56;;;;;;;;;16.50;15.25;;;;;;;;5045257;28;51142;-45
2022/02/23 05:06:47;;;;;;;;;21.25;19.25;;;;;;;;5040766;28;51401;-47
2022/02/23 05:09:51;;;;;;;;;17.75;15.75;;;;;;;;5045425;28;51132;-46
2022/02/23 05:12:36;;;;;;;;;19.75;16.25;;;;;;;;5041066;28;51091;-49
2022/02/23 05:15:24;;;;;;;;;20.00;17.25;;;;;;;;5055913;28;51574;-51
2022/02/23 05:18:08;;;;;;;;;23.00;19.75;;;;;;;;5042703;28;51157;-44
2022/02/23 05:20:55;;;;;;;;;24.50;20.00;;;;;;;;5041556;28;51128;-48
2022/02/23 05:23:40;;;;;;;;;19.50;17.50;;;;;;;;5041373;28;51005;-48
2022/02/23 05:26:24;;;;;;;;;22.25;18.75;;;;;;;;5053557;28;51553;-47
2022/02/23 05:29:08;;;;;;;;;22.00;20.00;;;;;;;;5053990;28;51202;-48
2022/02/23 05:31:55;;;;;;;;;19.50;17.25;;;;;;;;5048590;28;51146;-49
2022/02/23 05:34:42;;;;;;;;;21.50;15.75;;;;;;;;5054933;28;51185;-48
2022/02/23 05:37:47;;;;;;;;;17.50;14.25;;;;;;;;5055080;28;51129;-47
2022/02/23 05:40:42;;;;;;;;;22.50;19.75;;;;;;;;5058738;28;51594;-49
2022/02/23 05:43:27;;;;;;;;;27.75;17.75;;;;;;;;5044026;28;51334;-48
2022/02/23 05:46:14;;;;;;;;;23.00;19.50;;;;;;;;5043621;28;51542;-50
2022/02/23 05:48:59;;;;;;;;;18.50;16.75;;;;;;;;5039316;28;51164;-50
2022/02/23 05:51:47;;;;;;;;;22.25;17.25;;;;;;;;5041705;28;51350;-46
2022/02/23 05:54:33;;;;;;;;;21.25;15.75;;;;;;;;5046246;28;51083;-49
2022/02/23 05:57:19;;;;;;;;;17.50;17.50;;;;;;;;5048173;28;51881;-48
2022/02/23 06:00:08;;;;;;;;;24.75;21.50;;;;;;;;5051097;28;51153;-50
2022/02/23 06:02:54;;;;;;;;;24.75;22.50;;;;;;;;5050002;28;51020;-46
2022/02/23 06:05:38;;;;;;;;;24.00;19.75;;;;;;;;5055709;28;51443;-47
2022/02/23 06:08:24;;;;;;;;;23.25;16.50;;;;;;;;5053023;28;51016;-48
2022/02/23 06:11:08;;;;;;;;;23.00;18.50;;;;;;;;5051746;28;51589;-51
2022/02/23 06:13:56;;;;;;;;;28.50;22.00;;;;;;;;5049820;28;52134;-46
2022/02/23 06:16:44;;;;;;;;;23.00;20.50;;;;;;;;5035706;28;51556;-47
2022/02/23 06:19:29;;;;;;;;;29.50;20.00;;;;;;;;5053082;28;51090;-46
2022/02/23 06:22:17;;;;;;;;;22.25;19.00;;;;;;;;5052339;28;51178;-45
2022/02/23 06:25:03;;;;;;;;;24.00;18.25;;;;;;;;5048781;28;51171;-45
2022/02/23 06:28:03;;;;;;;;;22.50;19.25;;;;;;;;5053081;28;51000;-47
2022/02/23 06:30:50;;;;;;;;;17.50;13.50;;;;;;;;5051448;28;51459;-46
2022/02/23 06:33:35;;;;;;;;;23.50;21.50;;;;;;;;5043151;28;51242;-46
2022/02/23 06:36:24;;;;;;;;;27.25;20.00;;;;;;;;5049986;28;51049;-50
2022/02/23 06:39:14;;;;;;;;;25.00;19.50;;;;;;;;5044435;28;51113;-46
2022/02/23 06:41:59;;;;;;;;;29.50;21.25;;;;;;;;5052821;28;51501;-48
2022/02/23 06:44:44;;;;;;;;;26.00;22.50;;;;;;;;5044153;28;51166;-46
2022/02/23 06:47:28;;;;;;;;;27.75;20.00;;;;;;;;5045069;28;51540;-44
2022/02/23 06:50:13;;;;;;;;;23.75;19.00;;;;;;;;5052758;28;51108;-48
2022/02/23 06:52:58;;;;;;;;;24.25;19.75;;;;;;;;5047866;28;51472;-48
2022/02/23 06:55:43;;;;;;;;;21.00;18.25;;;;;;;;5046190;28;51401;-46
2022/02/23 06:58:29;;;;;;;;;21.50;18.50;;;;;;;;5056486;28;51112;-45
2022/02/23 07:01:22;;;;;;;;;26.50;19.75;;;;;;;;5058487;28;51188;-45
2022/02/23 07:04:08;;;;;;;;;24.00;19.75;;;;;;;;5058009;28;51113;-45
2022/02/23 07:06:56;;;;;;;;;23.75;19.75;;;;;;;;5054635;28;51458;-48
2022/02/23 07:09:46;;;;;;;;;23.00;19.50;;;;;;;;5038925;28;51160;-49
2022/02/23 07:12:30;;;;;;;;;18.25;18.00;;;;;;;;5039116;28;51468;-46
2022/02/23 07:15:17;;;;;;;;;25.50;19.25;;;;;;;;5038521;28;51096;-47
2022/02/23 07:18:02;;;;;;;;;20.75;17.75;;;;;;;;5040396;28;51005;-47
2022/02/23 07:20:55;;;;;;;;;23.00;18.00;;;;;;;;5055389;28;51933;-46
2022/02/23 07:23:41;;;;;;;;;20.50;16.75;;;;;;;;5041532;28;51267;-46
2022/02/23 07:26:31;;;;;;;;;20.00;17.25;;;;;;;;5038458;28;51116;-46
2022/02/23 07:29:21;;;;;;;;;18.75;15.75;;;;;;;;5038869;28;51005;-47
2022/02/23 07:32:07;;;;;;;;;21.25;18.50;;;;;;;;5039673;28;51451;-45
2022/02/23 07:34:57;;;;;;;;;24.00;18.00;;;;;;;;5041608;28;51076;-47
2022/02/23 07:37:43;;;;;;;;;20.25;16.00;;;;;;;;5040969;28;51200;-44
2022/02/23 07:40:30;;;;;;;;;21.75;17.00;;;;;;;;5032606;28;51822;-45
2022/02/23 07:43:17;;;;;;;;;22.00;18.25;;;;;;;;5043058;28;51160;-48
2022/02/23 07:46:01;;;;;;;;;20.25;16.75;;;;;;;;5039483;28;51193;-48
2022/02/23 07:48:47;;;;;;;;;27.00;17.25;;;;;;;;5040008;28;51245;-51
2022/02/23 07:51:32;;;;;;;;;21.25;14.25;;;;;;;;5043374;28;51036;-48
2022/02/23 07:54:20;;;;;;;;;23.50;13.25;;;;;;;;5039804;28;51098;-49
2022/02/23 07:57:04;;;;;;;;;24.75;18.75;;;;;;;;5045202;28;51257;-50
2022/02/23 07:59:49;;;;;;;;;20.75;16.50;;;;;;;;5038694;28;51010;-46
2022/02/23 08:02:45;;;;;;;;;21.25;16.00;;;;;;;;5051505;28;51146;-46
2022/02/23 08:05:29;;;;;;;;;18.25;15.50;;;;;;;;5048868;28;51341;-50
2022/02/23 08:08:16;;;;;;;;;17.50;12.00;;;;;;;;5059002;28;51160;-48
2022/02/23 08:11:02;;;;;;;;;19.25;15.00;;;;;;;;5058601;28;51419;-49
2022/02/23 08:13:56;;;;;;;;;21.50;14.75;;;;;;;;5057484;28;51102;-47
2022/02/23 08:20:06;;;;;;;;;23.50;16.00;;;;;;;;5060823;28;50977;-47
2022/02/23 08:22:52;;;;;;;;;19.00;17.00;;;;;;;;5043122;28;51183;-49
2022/02/23 08:25:39;;;;;;;;;23.75;17.50;;;;;;;;5032411;28;52022;-49
2022/02/23 08:28:28;;;;;;;;;24.50;18.25;;;;;;;;5046887;28;51243;-46
2022/02/23 08:31:23;;;;;;;;;22.75;15.00;;;;;;;;5050901;28;51192;-48
2022/02/23 08:34:19;;;;;;;;;17.25;17.25;;;;;;;;5047308;28;51431;-48
2022/02/23 08:37:04;;;;;;;;;20.00;14.75;;;;;;;;5044505;28;51457;-47
2022/02/23 08:40:14;;;;;;;;;19.00;17.00;;;;;;;;5040693;28;51155;-47
2022/02/23 08:43:10;;;;;;;;;11.50;11.00;;;;;;;;5048917;28;51151;-46
2022/02/23 08:45:54;;;;;;;;;21.75;17.00;;;;;;;;5046648;28;51120;-44
2022/02/23 08:48:40;;;;;;;;;14.00;13.00;;;;;;;;5061394;28;51412;-49
2022/02/23 08:51:31;;;;;;;;;16.50;13.25;;;;;;;;5060824;28;51252;-46
2022/02/23 08:54:17;;;;;;;;;21.00;14.50;;;;;;;;5047168;28;51115;-45
2022/02/23 08:57:02;;;;;;;;;20.00;15.00;;;;;;;;5035070;28;51559;-50
2022/02/23 08:59:47;;;;;;;;;18.75;14.25;;;;;;;;5042610;28;51136;-49
2022/02/23 09:02:43;;;;;;;;;15.00;11.75;;;;;;;;5049383;28;51446;-45
2022/02/23 09:05:38;;;;;;;;;13.50;13.50;;;;;;;;5040616;28;51739;-48
2022/02/23 09:08:36;;;;;;;;;23.75;14.75;;;;;;;;5040150;28;51171;-45
2022/02/23 09:11:21;;;;;;;;;17.50;14.25;;;;;;;;5041215;28;51158;-49
2022/02/23 09:14:05;;;;;;;;;14.75;13.25;;;;;;;;5039387;28;51313;-46
2022/02/23 09:16:50;;;;;;;;;24.00;15.00;;;;;;;;5040490;28;51047;-47
2022/02/23 09:19:45;;;;;;;;;17.25;13.75;;;;;;;;5043506;28;51324;-52
2022/02/23 09:22:39;;;;;;;;;20.25;15.25;;;;;;;;5042944;28;51082;-45
2022/02/23 09:25:23;;;;;;;;;16.75;13.25;;;;;;;;5040840;28;51060;-43
2022/02/23 09:28:07;;;;;;;;;15.25;14.75;;;;;;;;5046149;28;51155;-46
2022/02/23 09:31:02;;;;;;;;;27.00;21.00;;;;;;;;5049883;28;51628;-48
2022/02/23 09:33:57;;;;;;;;;21.50;17.50;;;;;;;;5040213;28;51202;-48
2022/02/23 09:36:42;;;;;;;;;16.25;13.50;;;;;;;;5043305;28;51013;-49
2022/02/23 09:39:28;;;;;;;;;16.00;12.75;;;;;;;;5040128;28;51360;-47
2022/02/23 09:42:43;;;;;;;;;18.25;15.25;;;;;;;;5055250;28;51146;-44
2022/02/23 09:45:29;;;;;;;;;17.75;13.25;;;;;;;;5049546;28;51088;-49
2022/02/23 09:48:14;;;;;;;;;19.00;17.25;;;;;;;;5059262;28;51139;-50
2022/02/23 09:51:19;;;;;;;;;33.25;27.50;;;;;;;;5039681;28;51259;-49
2022/02/23 09:54:06;;;;;;;;;20.25;17.00;;;;;;;;5039442;28;51187;-50
2022/02/23 09:56:53;;;;;;;;;15.00;13.75;;;;;;;;5045652;28;51198;-55
2022/02/23 09:59:39;;;;;;;;;18.75;13.50;;;;;;;;5048668;28;51153;-54
2022/02/23 10:02:25;;;;;;;;;13.25;12.00;;;;;;;;5040273;28;51155;-54
2022/02/23 10:05:12;;;;;;;;;15.25;14.00;;;;;;;;5038977;28;51151;-56
2022/02/23 10:08:06;;;;;;;;;18.75;15.00;;;;;;;;5039584;28;51143;-53
2022/02/23 10:10:55;;;;;;;;;15.50;14.75;;;;;;;;5038699;28;51455;-47
2022/02/23 10:13:52;;;;;;;;;11.75;10.00;;;;;;;;5036934;28;50994;-48
2022/02/23 10:17:02;;;;;;;;;18.75;15.75;;;;;;;;5038484;28;51240;-48
2022/02/23 10:19:51;;;;;;;;;17.00;14.00;;;;;;;;5045228;28;51216;-52
2022/02/23 10:22:43;;;;;;;;;16.50;13.00;;;;;;;;5026644;28;51196;-51
2022/02/23 10:25:29;;;;;;;;;14.75;13.25;;;;;;;;5039134;28;51239;-50
2022/02/23 10:28:21;;;;;;;;;18.25;13.75;;;;;;;;5045040;28;51092;-50
2022/02/23 10:31:09;;;;;;;;;17.50;15.25;;;;;;;;5054458;28;51016;-48
2022/02/23 10:33:53;;;;;;;;;18.75;15.50;;;;;;;;5045460;28;51195;-49
2022/02/23 10:36:39;;;;;;;;;15.25;13.75;;;;;;;;5046239;28;51440;-51
2022/02/23 10:39:42;;;;;;;;;15.50;11.75;;;;;;;;5047876;28;51133;-47
2022/02/23 10:42:34;;;;;;;;;14.00;13.50;;;;;;;;5053017;28;51274;-48
2022/02/23 10:45:18;;;;;;;;;16.75;15.00;;;;;;;;5050265;28;51442;-50
2022/02/23 10:48:12;;;;;;;;;18.00;16.50;;;;;;;;5054977;28;51524;-49
2022/02/23 10:51:06;;;;;;;;;14.00;14.00;;;;;;;;5045690;28;51251;-51
2022/02/23 10:54:16;;;;;;;;;5.00;4.00;;;;;;;;5042498;28;51206;-48
2022/02/23 10:57:01;;;;;;;;;16.25;13.25;;;;;;;;5040148;28;51395;-49
2022/02/23 10:59:46;;;;;;;;;12.00;12.00;;;;;;;;5038820;28;51095;-49
2022/02/23 11:02:34;;;;;;;;;15.00;11.25;;;;;;;;5039554;28;51139;-50
2022/02/23 11:05:38;;;;;;;;;;;;;;;;;;4314164;28;34758434;-48
2022/02/23 11:08:26;;;;;;;;;13.00;12.25;;;;;;;;5054278;28;51107;-48
2022/02/23 11:11:12;;;;;;;;;17.50;13.00;;;;;;;;5046348;28;51164;-49
2022/02/23 11:14:03;;;;;;;;;12.50;11.50;;;;;;;;5044642;28;51181;-57
2022/02/23 11:16:49;;;;;;;;;14.50;12.75;;;;;;;;5038250;28;51109;-58
2022/02/23 11:19:48;;;;;;;;;14.50;11.25;;;;;;;;5042098;28;51083;-58
2022/02/23 11:22:39;;;;;;;;;14.50;12.50;;;;;;;;5038398;28;51156;-58
2022/02/23 11:25:40;;;;;;;;;16.25;11.75;;;;;;;;5044131;28;51016;-59
2022/02/23 11:28:30;;;;;;;;;15.75;11.00;;;;;;;;5037950;28;51125;-58
2022/02/23 11:31:16;;;;;;;;;13.00;13.00;;;;;;;;5038223;28;51230;-57
2022/02/23 11:34:00;;;;;;;;;13.75;10.25;;;;;;;;5038422;28;51143;-60
2022/02/23 11:36:46;;;;;;;;;14.00;12.75;;;;;;;;5042252;28;51219;-59
2022/02/23 11:39:38;;;;;;;;;13.75;12.25;;;;;;;;5043230;28;51568;-58
2022/02/23 11:42:27;;;;;;;;;16.25;14.75;;;;;;;;5041702;28;51095;-59
2022/02/23 11:45:13;;;;;;;;;17.75;12.00;;;;;;;;5051008;28;51591;-59
2022/02/23 11:47:59;;;;;;;;;17.25;15.50;;;;;;;;5048709;28;51157;-59
2022/02/23 11:51:02;;;;;;;;;14.00;11.25;;;;;;;;5047712;28;51222;-59
2022/02/23 11:53:47;;;;;;;;;16.00;13.00;;;;;;;;5042295;28;51111;-59
2022/02/23 11:56:38;;;;;;;;;17.50;14.25;;;;;;;;5043363;28;51041;-59
2022/02/23 11:59:41;;;;;;;;;15.00;13.00;;;;;;;;5042226;28;51398;-58
2022/02/23 12:02:46;;;;;;;;;17.50;14.75;;;;;;;;5056635;28;51337;-58
2022/02/23 12:05:41;;;;;;;;;18.50;13.75;;;;;;;;5059506;28;51414;-58
2022/02/23 12:08:31;;;;;;;;;17.25;15.00;;;;;;;;5046229;28;51207;-59
2022/02/23 12:11:16;;;;;;;;;16.25;13.25;;;;;;;;5042197;28;51531;-59
2022/02/23 12:14:00;;;;;;;;;17.25;14.50;;;;;;;;5060198;28;51214;-57
2022/02/23 12:16:49;;;;;;;;;19.00;14.75;;;;;;;;5047324;28;51108;-58
2022/02/23 12:19:41;;;;;;;;;23.25;18.25;;;;;;;;5044958;28;51760;-60
2022/02/23 12:22:28;;;;;;;;;16.50;12.00;;;;;;;;5057341;28;51118;-59
2022/02/23 12:25:14;;;;;;;;;20.00;15.25;;;;;;;;5050403;28;51381;-59
2022/02/23 12:27:59;;;;;;;;;14.50;12.75;;;;;;;;5049710;28;51002;-59
2022/02/23 12:31:08;;;;;;;;;13.50;11.25;;;;;;;;5048099;28;51055;-60
2022/02/23 12:33:56;;;;;;;;;16.75;12.75;;;;;;;;5050296;28;51125;-59
2022/02/23 12:36:46;;;;;;;;;18.75;14.75;;;;;;;;5043321;28;51123;-58
2022/02/23 12:39:31;;;;;;;;;14.25;12.50;;;;;;;;5048972;28;51254;-59
2022/02/23 12:42:16;;;;;;;;;20.25;14.75;;;;;;;;5037993;28;51170;-59
2022/02/23 12:45:01;;;;;;;;;19.25;14.25;;;;;;;;5044724;28;51559;-58
2022/02/23 12:48:02;;;;;;;;;16.00;14.75;;;;;;;;5044930;28;51230;-58
2022/02/23 12:50:46;;;;;;;;;15.75;12.50;;;;;;;;5036779;28;51350;-59
2022/02/23 12:53:37;;;;;;;;;18.75;15.75;;;;;;;;5043483;28;51160;-59
2022/02/23 12:56:38;;;;;;;;;18.50;16.50;;;;;;;;5047446;28;51107;-59
2022/02/23 12:59:24;;;;;;;;;18.75;15.00;;;;;;;;5043412;28;51447;-59
2022/02/23 13:02:15;;;;;;;;;12.00;12.00;;;;;;;;5046040;28;51338;-57
2022/02/23 13:05:03;;;;;;;;;13.50;11.00;;;;;;;;5038909;28;51151;-58
2022/02/23 13:07:49;;;;;;;;;12.25;11.00;;;;;;;;5049910;28;51163;-58
2022/02/23 13:10:33;;;;;;;;;16.50;12.50;;;;;;;;5045639;28;51361;-59
2022/02/23 13:13:34;;;;;;;;;19.75;13.50;;;;;;;;5048987;28;51112;-58
2022/02/23 13:16:27;;;;;;;;;13.50;13.00;;;;;;;;5052637;28;51073;-58
2022/02/23 13:19:16;;;;;;;;;18.25;13.75;;;;;;;;5048666;28;51079;-58
2022/02/23 13:22:10;;;;;;;;;13.75;12.25;;;;;;;;5043004;28;51571;-58
2022/02/23 13:24:59;;;;;;;;;12.50;10.25;;;;;;;;5050611;28;51060;-57
2022/02/23 13:27:45;;;;;;;;;18.00;13.50;;;;;;;;5034522;28;51202;-58
2022/02/23 13:30:32;;;;;;;;;16.50;14.25;;;;;;;;5055866;28;51239;-58
2022/02/23 13:33:34;;;;;;;;;14.75;14.25;;;;;;;;5043122;28;51227;-57
2022/02/23 13:36:19;;;;;;;;;13.75;12.75;;;;;;;;5038121;28;51433;-58
2022/02/23 13:39:33;;;;;;;;;19.25;14.50;;;;;;;;5041738;28;51458;-58
2022/02/23 13:42:36;;;;;;;;;19.50;14.25;;;;;;;;5043203;28;51696;-58
2022/02/23 13:45:24;;;;;;;;;14.50;12.25;;;;;;;;5049432;28;51198;-58
2022/02/23 13:48:11;;;;;;;;;16.25;15.25;;;;;;;;5051260;28;51392;-59
2022/02/23 13:50:57;;;;;;;;;16.25;14.75;;;;;;;;5057758;28;51167;-58
2022/02/23 13:53:48;;;;;;;;;17.50;14.00;;;;;;;;5042670;28;51662;-58
2022/02/23 13:56:33;;;;;;;;;19.25;15.75;;;;;;;;5054550;28;51176;-58
2022/02/23 13:59:19;;;;;;;;;15.25;13.25;;;;;;;;5048470;28;51158;-58
2022/02/23 14:02:10;;;;;;;;;18.75;14.50;;;;;;;;5048866;28;51481;-58
2022/02/23 14:05:04;;;;;;;;;14.50;11.75;;;;;;;;5041258;28;51257;-58
2022/02/23 14:07:55;;;;;;;;;14.75;13.75;;;;;;;;5044136;28;51172;-58
2022/02/23 14:10:42;;;;;;;;;18.50;14.50;;;;;;;;5041585;28;51138;-59
2022/02/23 14:13:44;;;;;;;;;13.75;13.75;;;;;;;;5037125;28;51178;-59
2022/02/23 14:16:33;;;;;;;;;15.50;11.00;;;;;;;;5046130;28;51106;-59
2022/02/23 14:19:26;;;;;;;;;18.00;13.75;;;;;;;;5044506;28;51161;-58
2022/02/23 14:22:23;;;;;;;;;15.25;13.25;;;;;;;;5044996;28;51173;-58
2022/02/23 14:25:25;;;;;;;;;14.50;12.00;;;;;;;;5039823;28;51045;-58
2022/02/23 14:28:23;;;;;;;;;16.75;14.25;;;;;;;;5049530;28;51423;-59
2022/02/23 14:31:26;;;;;;;;;15.75;12.50;;;;;;;;5044463;28;51171;-58
2022/02/23 14:34:23;;;;;;;;;14.25;12.25;;;;;;;;5039986;28;51101;-59
2022/02/23 14:37:23;;;;;;;;;16.50;16.50;;;;;;;;5050057;28;51075;-58
2022/02/23 14:40:09;;;;;;;;;18.75;14.75;;;;;;;;5040225;28;51466;-59
2022/02/23 14:43:14;;;;;;;;;21.00;13.00;;;;;;;;5039303;28;51049;-57
2022/02/23 14:45:59;;;;;;;;;12.50;9.50;;;;;;;;5039055;28;53464;-58
2022/02/23 14:48:44;;;;;;;;;16.75;14.50;;;;;;;;5052959;28;51130;-58
2022/02/23 14:51:31;;;;;;;;;13.50;12.25;;;;;;;;5046028;28;51024;-59
2022/02/23 14:54:16;;;;;;;;;15.75;12.25;;;;;;;;5038712;28;51118;-59
2022/02/23 14:57:02;;;;;;;;;17.75;13.50;;;;;;;;5054269;28;51043;-58
2022/02/23 14:59:47;;;;;;;;;14.25;11.00;;;;;;;;5041220;28;51112;-59
2022/02/23 15:02:31;;;;;;;;;15.00;14.00;;;;;;;;5055150;28;51071;-58
2022/02/23 15:05:16;;;;;;;;;18.75;15.50;;;;;;;;5049520;28;51098;-58
2022/02/23 15:08:03;;;;;;;;;14.75;12.00;;;;;;;;5058080;28;51075;-58
2022/02/23 15:10:51;;;;;;;;;18.75;15.00;;;;;;;;5058671;28;51433;-59
2022/02/23 15:13:38;;;;;;;;;13.00;12.75;;;;;;;;5059075;28;51098;-58
2022/02/23 15:16:24;;;;;;;;;12.50;12.25;;;;;;;;5043691;28;51313;-58
2022/02/23 15:19:08;;;;;;;;;15.75;13.00;;;;;;;;5055033;28;51155;-59
2022/02/23 15:21:58;;;;;;;;;13.75;10.25;;;;;;;;5038325;28;51065;-58
2022/02/23 15:24:47;;;;;;;;;17.50;14.00;;;;;;;;5038390;28;51125;-59
2022/02/23 15:27:31;;;;;;;;;16.50;13.25;;;;;;;;5042498;28;51116;-59
2022/02/23 15:30:16;;;;;;;;;14.25;11.25;;;;;;;;5043297;28;51347;-59
2022/02/23 15:33:02;;;;;;;;;15.50;14.25;;;;;;;;5044464;28;51170;-61
2022/02/23 15:35:49;;;;;;;;;18.75;12.50;;;;;;;;5038354;28;51431;-60
2022/02/23 15:38:36;;;;;;;;;17.25;14.50;;;;;;;;5037765;28;51093;-59
2022/02/23 15:41:21;;;;;;;;;17.50;13.75;;;;;;;;5041592;28;51138;-60
2022/02/23 15:44:05;;;;;;;;;17.00;12.75;;;;;;;;5042975;28;51587;-60
2022/02/23 15:46:51;;;;;;;;;16.75;13.75;;;;;;;;5038310;28;51091;-60
2022/02/23 15:49:36;;;;;;;;;19.25;16.00;;;;;;;;5038062;28;51120;-60
2022/02/23 15:52:28;;;;;;;;;22.00;16.75;;;;;;;;5038128;28;51185;-59
2022/02/23 15:55:13;;;;;;;;;16.75;14.75;;;;;;;;5037751;28;51467;-58
2022/02/23 15:58:00;;;;;;;;;15.00;13.50;;;;;;;;5039592;28;51058;-60
2022/02/23 16:00:51;;;;;;;;;18.50;15.50;;;;;;;;5051006;28;51118;-59
2022/02/23 16:03:37;;;;;;;;;18.50;16.50;;;;;;;;5038348;28;51399;-60
2022/02/23 16:06:23;;;;;;;;;16.50;13.00;;;;;;;;5044022;28;51135;-60
2022/02/23 16:09:07;;;;;;;;;16.75;13.25;;;;;;;;5038611;28;51073;-59
2022/02/23 16:12:05;;;;;;;;;18.00;13.00;;;;;;;;5039165;28;51116;-60
2022/02/23 16:14:50;;;;;;;;;17.50;14.75;;;;;;;;5045160;28;51108;-60
2022/02/23 16:17:38;;;;;;;;;19.25;13.50;;;;;;;;5047660;28;51125;-59
2022/02/23 16:20:47;;;;;;;;;6.50;6.25;;;;;;;;5045030;28;51357;-61
2022/02/23 16:23:31;;;;;;;;;18.50;15.00;;;;;;;;5040402;28;51178;-60
2022/02/23 16:26:17;;;;;;;;;14.25;12.25;;;;;;;;5049167;28;51117;-59
2022/02/23 16:29:03;;;;;;;;;14.75;12.50;;;;;;;;5052781;28;51207;-60
2022/02/23 16:31:51;;;;;;;;;20.75;15.25;;;;;;;;5039687;28;51053;-59